Port Alice, Canada
Current Conditions -  °F | °C
As of 4:00 AM on Friday 28 Nov 2014 (Local Time) from CYZT Reporting Station
Broken Clouds Broken Clouds  
Wind Chill: 33°   Ceiling: 8700
Heat Index: 37°   Visibility: 15mi
Dew Point: 34°   Wind: 6mph
Humidity: 87%   Direction: 260°W
Pressure: 29.65"   Gusts: NA
Location:  50.38°N, 127.43°W
Report Text: CYZT 281200Z 26005KT 15SM FEW025 BKN087 03/01 A2965 RMK SC1AC6 SLP042
Loading
Personal Weather Stations






























Interactive Weather Map New forecast layout! Learn more

10-Day Weather Forecast

Advertisements
Track Severe Weather on mobile